createdAt,value
2022-11-09T00:01:30.525Z,7.07
2022-11-09T00:04:00.608Z,5.50
2022-11-09T00:06:30.196Z,5.80
2022-11-09T00:09:06.832Z,5.83
2022-11-09T00:11:36.297Z,5.05
2022-11-09T00:14:04.794Z,4.68
2022-11-09T00:16:33.336Z,5.25
2022-11-09T00:19:01.505Z,5.00
2022-11-09T00:21:29.678Z,5.90
2022-11-09T00:24:00.036Z,5.70
2022-11-09T00:26:28.696Z,5.63
2022-11-09T00:28:57.022Z,5.20
2022-11-09T00:31:26.065Z,5.17
2022-11-09T00:33:57.500Z,4.95
2022-11-09T00:36:28.273Z,5.10
2022-11-09T00:38:58.388Z,5.60
2022-11-09T00:41:29.154Z,5.47
2022-11-09T00:43:57.570Z,6.47
2022-11-09T00:46:26.080Z,6.43
2022-11-09T00:48:56.838Z,5.22
2022-11-09T00:51:25.758Z,5.77
2022-11-09T00:53:55.360Z,5.17
2022-11-09T00:56:24.621Z,5.90
2022-11-09T00:58:56.565Z,4.73
2022-11-09T01:01:25.291Z,4.75
2022-11-09T01:03:53.466Z,4.60
2022-11-09T01:06:24.890Z,5.03
2022-11-09T01:08:54.108Z,5.17
2022-11-09T01:11:23.887Z,5.03
2022-11-09T01:13:56.212Z,4.63
2022-11-09T01:16:25.482Z,4.93
2022-11-09T01:18:55.657Z,4.43
2022-11-09T01:21:26.729Z,4.23
2022-11-09T01:23:56.121Z,4.67
2022-11-09T01:26:24.615Z,4.80
2022-11-09T01:28:52.851Z,4.43
2022-11-09T01:31:23.659Z,4.88
2022-11-09T01:33:52.269Z,5.00
2022-11-09T01:36:22.576Z,5.33
2022-11-09T01:38:51.996Z,4.50
2022-11-09T01:41:22.729Z,4.68
2022-11-09T01:44:15.114Z,4.23
2022-11-09T01:46:52.722Z,4.30
2022-11-09T01:49:37.236Z,4.73
2022-11-09T01:52:10.282Z,4.07
2022-11-09T01:54:45.274Z,3.83
2022-11-09T01:57:21.794Z,3.87
2022-11-09T01:59:57.657Z,4.33
2022-11-09T02:02:27.262Z,3.87
2022-11-09T02:05:02.585Z,3.87
2022-11-09T02:07:31.693Z,3.57
2022-11-09T02:10:07.396Z,3.53
2022-11-09T02:12:39.255Z,3.20
2022-11-09T02:15:11.644Z,3.17
2022-11-09T02:17:44.144Z,2.90
2022-11-09T02:20:16.621Z,3.10
2022-11-09T02:22:45.415Z,2.97
2022-11-09T02:25:16.345Z,2.87
2022-11-09T02:27:45.619Z,3.13
2022-11-09T02:30:15.221Z,3.13
2022-11-09T02:32:43.589Z,2.92
2022-11-09T02:35:13.495Z,3.17
2022-11-09T02:37:48.683Z,2.70
2022-11-09T02:40:23.495Z,3.17
2022-11-09T02:42:51.755Z,2.67
2022-11-09T02:45:20.147Z,2.72
2022-11-09T02:47:48.266Z,2.97
2022-11-09T02:50:18.093Z,3.13
2022-11-09T02:52:46.324Z,3.20
2022-11-09T02:55:15.914Z,2.97
2022-11-09T02:57:44.708Z,3.40
2022-11-09T03:00:16.355Z,3.00
2022-11-09T03:02:45.691Z,2.95
2022-11-09T03:05:14.069Z,3.10
2022-11-09T03:07:45.776Z,3.15
2022-11-09T03:10:15.356Z,2.88
2022-11-09T03:12:43.525Z,2.93
2022-11-09T03:15:14.855Z,2.97
2022-11-09T03:17:46.336Z,2.85
2022-11-09T03:20:14.767Z,3.20
2022-11-09T03:22:45.294Z,2.78
2022-11-09T03:25:14.030Z,3.38
2022-11-09T03:27:42.399Z,3.17
2022-11-09T03:30:12.010Z,2.97
2022-11-09T03:32:41.215Z,2.75
2022-11-09T03:35:10.632Z,3.03
2022-11-09T03:37:38.973Z,2.72
2022-11-09T03:40:10.502Z,3.20
2022-11-09T03:42:45.664Z,3.20
2022-11-09T03:45:14.323Z,3.17
2022-11-09T03:47:42.686Z,3.22
2022-11-09T03:50:12.406Z,2.50
2022-11-09T03:52:40.905Z,2.58
2022-11-09T03:55:11.233Z,2.88
2022-11-09T03:57:39.498Z,3.10
2022-11-09T04:00:10.870Z,3.00
2022-11-09T04:02:41.857Z,3.13
2022-11-09T04:05:11.319Z,3.28
2022-11-09T04:07:39.959Z,2.97
2022-11-09T04:10:10.845Z,3.33
2022-11-09T04:12:39.004Z,3.05
2022-11-09T04:15:08.377Z,3.23
2022-11-09T04:17:36.533Z,3.13
2022-11-09T04:20:06.049Z,2.70
2022-11-09T04:22:36.444Z,2.95
2022-11-09T04:25:05.439Z,2.80
2022-11-09T04:27:34.958Z,3.00
2022-11-09T04:30:03.133Z,3.67
2022-11-09T04:32:31.292Z,3.03
2022-11-09T04:34:59.460Z,3.10
2022-11-09T04:37:27.634Z,3.20
2022-11-09T04:39:55.734Z,2.92
2022-11-09T04:42:23.849Z,3.03
2022-11-09T04:44:53.261Z,2.80
2022-11-09T04:47:21.375Z,3.03
2022-11-09T04:49:49.613Z,2.53
2022-11-09T04:52:17.762Z,3.30
2022-11-09T04:54:45.908Z,3.10
2022-11-09T04:57:14.056Z,2.95
2022-11-09T04:59:42.222Z,2.97
2022-11-09T05:02:11.743Z,3.03
2022-11-09T05:04:39.839Z,3.00
2022-11-09T05:07:07.998Z,3.75
2022-11-09T05:09:36.151Z,4.20
2022-11-09T05:12:04.388Z,3.50
2022-11-09T05:14:32.536Z,4.67
2022-11-09T05:17:00.722Z,4.72
2022-11-09T05:19:30.219Z,5.40
2022-11-09T05:22:18.378Z,4.30
2022-11-09T05:24:45.571Z,4.40
2022-11-09T05:27:13.702Z,4.18
2022-11-09T05:29:41.859Z,4.40
2022-11-09T05:32:10.099Z,4.95
2022-11-09T05:34:39.687Z,4.70
2022-11-09T05:37:07.820Z,4.80
2022-11-09T05:39:36.007Z,4.80
2022-11-09T05:42:04.289Z,4.77
2022-11-09T05:44:32.437Z,4.17
2022-11-09T05:47:00.558Z,4.30
2022-11-09T05:49:28.951Z,4.47
2022-11-09T05:51:58.693Z,3.73
2022-11-09T05:54:26.826Z,3.38
2022-11-09T05:56:54.923Z,3.60
2022-11-09T05:59:23.112Z,4.15
2022-11-09T06:01:51.319Z,4.68
2022-11-09T06:04:19.536Z,4.67
2022-11-09T06:06:47.824Z,4.93
2022-11-09T06:09:17.342Z,3.67
2022-11-09T06:11:45.506Z,3.13
2022-11-09T06:14:14.061Z,6.60
2022-11-09T06:16:42.213Z,5.87
2022-11-09T06:19:10.555Z,6.43
2022-11-09T06:21:38.803Z,5.60
2022-11-09T06:24:07.805Z,5.53
2022-11-09T06:26:37.989Z,4.15
2022-11-09T06:29:06.452Z,5.25
2022-11-09T06:31:34.729Z,5.07
2022-11-09T06:34:03.304Z,5.50
2022-11-09T06:36:31.460Z,4.47
2022-11-09T06:38:59.565Z,3.45
2022-11-09T06:41:27.751Z,3.63
2022-11-09T06:43:57.230Z,3.72
2022-11-09T06:46:25.608Z,3.43
2022-11-09T06:48:54.762Z,3.42
2022-11-09T06:51:23.013Z,3.33
2022-11-09T06:53:51.228Z,4.80
2022-11-09T06:56:19.380Z,5.18
2022-11-09T06:58:47.575Z,4.32
2022-11-09T07:01:27.423Z,5.47
2022-11-09T07:03:55.614Z,6.32
2022-11-09T07:06:24.179Z,6.18
2022-11-09T07:08:56.807Z,4.68
2022-11-09T07:11:25.080Z,5.15
2022-11-09T07:13:57.213Z,5.18
2022-11-09T07:16:26.990Z,5.18
2022-11-09T07:18:55.072Z,5.00
2022-11-09T07:21:23.398Z,5.43
2022-11-09T07:23:52.338Z,4.23
2022-11-09T07:26:20.532Z,3.58
2022-11-09T07:28:48.712Z,3.95
2022-11-09T07:31:16.895Z,4.75
2022-11-09T07:33:46.472Z,4.45
2022-11-09T07:36:19.920Z,4.40
2022-11-09T07:38:49.581Z,4.35
2022-11-09T07:41:17.700Z,4.20
2022-11-09T07:43:45.817Z,5.07
2022-11-09T07:46:14.707Z,4.35
2022-11-09T07:48:42.941Z,3.60
2022-11-09T07:51:12.601Z,3.70
2022-11-09T07:53:40.816Z,3.78
2022-11-09T07:56:09.340Z,4.20
2022-11-09T07:58:37.499Z,4.70
2022-11-09T08:01:09.433Z,4.53
2022-11-09T08:03:37.944Z,3.85
2022-11-09T08:06:06.892Z,4.38
2022-11-09T08:08:36.339Z,3.60
2022-11-09T08:11:04.614Z,4.75
2022-11-09T08:13:32.807Z,4.32
2022-11-09T08:16:03.204Z,4.32
2022-11-09T08:18:31.707Z,4.38
2022-11-09T08:21:03.766Z,5.35
2022-11-09T08:23:32.373Z,4.25
2022-11-09T08:26:05.211Z,4.93
2022-11-09T08:28:34.045Z,4.68
2022-11-09T08:31:05.199Z,5.10
2022-11-09T08:33:37.257Z,4.43
2022-11-09T08:36:11.766Z,5.10
2022-11-09T08:38:40.249Z,5.10
2022-11-09T08:41:13.408Z,4.10
2022-11-09T08:43:42.046Z,4.35
2022-11-09T08:46:10.220Z,4.47
2022-11-09T08:48:38.364Z,5.30
2022-11-09T08:51:06.914Z,5.13
2022-11-09T08:53:35.089Z,4.95
2022-11-09T08:56:03.226Z,4.80
2022-11-09T08:58:32.752Z,5.22
2022-11-09T09:01:00.898Z,8.63
2022-11-09T09:03:29.089Z,9.88
2022-11-09T09:05:57.246Z,7.15
2022-11-09T09:08:25.905Z,7.13
2022-11-09T09:10:54.070Z,6.63
2022-11-09T09:13:22.635Z,6.38
2022-11-09T09:15:52.261Z,5.47
2022-11-09T09:18:20.732Z,5.38
2022-11-09T09:20:49.102Z,5.18
2022-11-09T09:23:17.389Z,4.95
2022-11-09T09:25:45.596Z,4.70
2022-11-09T09:28:13.714Z,5.05
2022-11-09T09:30:41.838Z,6.00
2022-11-09T09:33:11.906Z,5.40
2022-11-09T09:35:40.040Z,5.60
2022-11-09T09:38:08.163Z,4.72
2022-11-09T09:40:55.835Z,5.25
2022-11-09T09:43:42.783Z,4.90
2022-11-09T09:46:28.144Z,5.57
2022-11-09T09:49:06.135Z,5.13
2022-11-09T09:51:42.007Z,4.63
2022-11-09T09:54:20.883Z,6.45
2022-11-09T09:56:54.300Z,6.15
2022-11-09T09:59:33.037Z,5.70
2022-11-09T10:02:01.403Z,5.53
2022-11-09T10:04:38.689Z,5.80
2022-11-09T10:07:16.236Z,5.60
2022-11-09T10:10:10.497Z,5.45
2022-11-09T10:12:58.983Z,5.00
2022-11-09T10:15:32.785Z,5.43
2022-11-09T10:18:31.317Z,5.43
2022-11-09T10:21:21.695Z,5.25
2022-11-09T10:24:08.680Z,5.43
2022-11-09T10:26:45.311Z,5.57
2022-11-09T10:29:23.799Z,5.03
2022-11-09T10:31:54.779Z,6.53
2022-11-09T10:34:30.228Z,6.10
2022-11-09T10:37:11.747Z,10.50
2022-11-09T10:39:50.487Z,6.25
2022-11-09T10:42:37.520Z,6.78
2022-11-09T10:45:34.036Z,4.85
2022-11-09T10:48:33.489Z,5.18
2022-11-09T10:51:39.433Z,5.80
2022-11-09T10:54:29.554Z,5.47
2022-11-09T10:57:21.102Z,5.22
2022-11-09T11:00:17.557Z,4.97
2022-11-09T11:03:16.184Z,51.60
2022-11-09T11:06:05.471Z,7.55
2022-11-09T11:08:54.370Z,5.45
2022-11-09T11:11:42.868Z,5.78
2022-11-09T11:14:34.809Z,6.13
2022-11-09T11:17:28.399Z,5.30
2022-11-09T11:20:30.626Z,4.70
2022-11-09T11:23:20.243Z,4.65
2022-11-09T11:26:27.867Z,24.30
2022-11-09T11:29:35.972Z,5.00
2022-11-09T11:32:26.643Z,4.25
2022-11-09T11:35:17.367Z,5.07
2022-11-09T11:38:23.673Z,4.78
2022-11-09T11:41:37.534Z,8.82
2022-11-09T11:44:52.692Z,5.22
2022-11-09T11:47:58.085Z,3.72
2022-11-09T11:50:52.817Z,4.03
2022-11-09T11:53:58.293Z,4.20
2022-11-09T11:56:53.700Z,8.25
2022-11-09T12:00:12.056Z,3.45
2022-11-09T12:03:33.680Z,3.15
2022-11-09T12:06:37.647Z,3.28
2022-11-09T12:09:49.580Z,3.17
2022-11-09T12:12:48.771Z,3.55
2022-11-09T12:15:53.237Z,3.22
2022-11-09T12:18:55.826Z,3.13
2022-11-09T12:21:54.459Z,3.35
2022-11-09T12:24:50.571Z,4.65
2022-11-09T12:28:02.869Z,4.22
2022-11-09T12:31:10.218Z,4.32
2022-11-09T12:34:07.067Z,4.05
2022-11-09T12:36:58.794Z,4.50
2022-11-09T12:39:48.753Z,4.05
2022-11-09T12:42:43.379Z,4.60
2022-11-09T12:45:34.624Z,4.75
2022-11-09T12:48:29.206Z,5.93
2022-11-09T12:51:16.956Z,4.00
2022-11-09T12:54:11.652Z,6.03
2022-11-09T12:57:03.849Z,3.50
2022-11-09T12:59:54.080Z,2.90
2022-11-09T13:02:54.805Z,3.10
2022-11-09T13:05:44.955Z,2.78
2022-11-09T13:08:33.323Z,3.42
2022-11-09T13:11:26.929Z,3.63
2022-11-09T13:14:36.997Z,3.25
2022-11-09T13:18:05.403Z,2.97
2022-11-09T13:20:56.775Z,2.80
2022-11-09T13:24:03.688Z,3.20
2022-11-09T13:26:59.865Z,6.30
2022-11-09T13:29:56.074Z,4.45
2022-11-09T13:33:21.888Z,4.20
2022-11-09T13:36:21.139Z,5.25
2022-11-09T13:39:34.041Z,3.17
2022-11-09T13:42:33.271Z,3.40
2022-11-09T13:45:30.892Z,9.05
2022-11-09T13:48:45.171Z,7.57
2022-11-09T13:51:47.105Z,15.77
2022-11-09T13:54:35.459Z,16.90
2022-11-09T13:57:24.754Z,11.98
2022-11-09T14:00:19.650Z,7.53
2022-11-09T14:03:20.993Z,18.00
2022-11-09T14:06:12.107Z,15.00
2022-11-09T14:09:02.146Z,12.75
2022-11-09T14:12:19.874Z,15.68
2022-11-09T14:15:30.192Z,7.05
2022-11-09T14:18:41.252Z,5.25
2022-11-09T14:21:43.814Z,7.28
2022-11-09T14:24:33.678Z,9.15
2022-11-09T14:27:22.752Z,14.98
2022-11-09T14:30:21.361Z,15.10
2022-11-09T14:33:23.992Z,12.25
2022-11-09T14:36:14.723Z,8.55
2022-11-09T14:39:05.347Z,12.02
2022-11-09T14:41:53.852Z,11.18
2022-11-09T14:44:45.569Z,10.02
2022-11-09T14:47:39.457Z,10.88
2022-11-09T14:50:29.059Z,9.48
2022-11-09T14:53:22.256Z,7.30
2022-11-09T14:56:15.233Z,6.85
2022-11-09T14:59:07.915Z,5.13
2022-11-09T15:02:04.583Z,4.40
2022-11-09T15:04:57.614Z,4.90
2022-11-09T15:07:48.320Z,2.85
2022-11-09T15:10:36.138Z,2.50
2022-11-09T15:13:33.066Z,2.75
2022-11-09T15:16:30.226Z,2.85
2022-11-09T15:19:29.033Z,3.35
2022-11-09T15:22:49.210Z,3.95
2022-11-09T15:25:53.216Z,4.00
2022-11-09T15:28:48.127Z,3.10
2022-11-09T15:31:36.571Z,3.75
2022-11-09T15:34:26.740Z,8.20
2022-11-09T15:37:29.664Z,7.20
2022-11-09T15:40:21.660Z,9.50
2022-11-09T15:43:08.400Z,9.48
2022-11-09T15:45:56.174Z,9.00
2022-11-09T15:48:46.262Z,12.10
2022-11-09T15:51:34.705Z,10.93
2022-11-09T15:54:22.597Z,9.93
2022-11-09T15:57:15.777Z,10.23
2022-11-09T16:00:07.779Z,9.45
2022-11-09T16:02:57.812Z,9.07
2022-11-09T16:05:46.793Z,9.45
2022-11-09T16:08:33.494Z,10.45
2022-11-09T16:11:20.709Z,10.68
2022-11-09T16:14:07.433Z,12.25
2022-11-09T16:16:54.356Z,11.32
2022-11-09T16:19:43.139Z,14.45
2022-11-09T16:22:33.820Z,16.63
2022-11-09T16:25:21.087Z,16.10
2022-11-09T16:28:07.703Z,21.80
2022-11-09T16:30:54.650Z,18.75
2022-11-09T16:33:41.949Z,14.57
2022-11-09T16:36:30.089Z,13.27
2022-11-09T16:39:18.374Z,14.50
2022-11-09T16:42:11.105Z,10.95
2022-11-09T16:45:09.031Z,13.82
2022-11-09T16:47:58.435Z,11.63
2022-11-09T16:50:46.970Z,13.13
2022-11-09T16:53:33.971Z,12.98
2022-11-09T16:56:22.218Z,15.98
2022-11-09T16:59:08.853Z,24.50
2022-11-09T17:01:58.853Z,23.13
2022-11-09T17:04:45.757Z,23.98
2022-11-09T17:07:42.211Z,25.33
2022-11-09T17:10:29.955Z,22.88
2022-11-09T17:13:18.100Z,18.48
2022-11-09T17:16:09.105Z,17.95
2022-11-09T17:18:57.775Z,13.30
2022-11-09T17:21:44.798Z,13.02
2022-11-09T17:24:32.761Z,11.25
2022-11-09T17:27:19.406Z,12.07
2022-11-09T17:30:10.624Z,12.85
2022-11-09T17:32:57.538Z,11.57
2022-11-09T17:35:44.308Z,12.98
2022-11-09T17:38:32.053Z,12.02
2022-11-09T17:41:21.819Z,11.13
2022-11-09T17:44:08.515Z,10.05
2022-11-09T17:46:56.800Z,15.55
2022-11-09T17:49:43.634Z,15.45
2022-11-09T17:52:30.607Z,14.23
2022-11-09T17:55:18.008Z,11.27
2022-11-09T17:58:05.463Z,8.70
2022-11-09T18:00:52.773Z,8.55
2022-11-09T18:03:41.425Z,9.50
2022-11-09T18:06:29.300Z,9.43
2022-11-09T18:09:40.339Z,9.80
2022-11-09T18:12:23.862Z,9.15
2022-11-09T18:15:11.923Z,9.02
2022-11-09T18:17:59.122Z,8.38
2022-11-09T18:20:47.563Z,8.43
2022-11-09T18:23:36.153Z,8.60
2022-11-09T18:26:23.172Z,10.35
2022-11-09T18:29:09.991Z,9.13
2022-11-09T18:31:56.819Z,9.05
2022-11-09T18:34:43.629Z,9.00
2022-11-09T18:37:35.177Z,15.20
2022-11-09T18:40:21.702Z,15.52
2022-11-09T18:43:08.480Z,15.35
2022-11-09T18:45:57.331Z,15.15
2022-11-09T18:48:45.050Z,13.48
2022-11-09T18:51:31.641Z,12.35
2022-11-09T18:54:19.979Z,12.13
2022-11-09T18:57:06.595Z,11.30
2022-11-09T18:59:53.628Z,11.75
2022-11-09T19:02:40.566Z,10.85
2022-11-09T19:05:27.549Z,10.52
2022-11-09T19:08:14.552Z,10.55
2022-11-09T19:11:08.186Z,14.02
2022-11-09T19:13:55.983Z,16.08
2022-11-09T19:16:42.963Z,20.23
2022-11-09T19:19:30.026Z,18.58
2022-11-09T19:22:19.294Z,19.58
2022-11-09T19:25:07.634Z,18.70
2022-11-09T19:27:55.538Z,15.32
2022-11-09T19:30:42.414Z,12.82
2022-11-09T19:33:29.477Z,13.10
2022-11-09T19:36:30.192Z,13.65
2022-11-09T19:39:18.491Z,10.95
2022-11-09T19:42:05.857Z,9.80
2022-11-09T19:44:56.642Z,10.75
2022-11-09T19:47:44.055Z,10.75
2022-11-09T19:50:30.818Z,9.50
2022-11-09T19:53:18.136Z,8.57
2022-11-09T19:56:08.621Z,7.90
2022-11-09T19:58:59.086Z,6.82
2022-11-09T20:01:46.866Z,6.65
2022-11-09T20:04:36.770Z,8.05
2022-11-09T20:07:23.605Z,8.05
2022-11-09T20:10:12.349Z,9.00
2022-11-09T20:12:59.293Z,7.07
2022-11-09T20:15:46.299Z,6.82
2022-11-09T20:18:36.286Z,8.00
2022-11-09T20:21:23.358Z,7.30
2022-11-09T20:24:12.777Z,8.18
2022-11-09T20:26:59.703Z,7.53
2022-11-09T20:29:46.447Z,7.30
2022-11-09T20:32:33.679Z,8.38
2022-11-09T20:35:22.181Z,6.72
2022-11-09T20:38:08.865Z,5.35
2022-11-09T20:40:56.991Z,5.20
2022-11-09T20:43:43.954Z,6.15
2022-11-09T20:46:35.770Z,7.47
2022-11-09T20:49:23.327Z,10.85
2022-11-09T20:52:11.701Z,9.63
2022-11-09T20:54:58.650Z,10.32
2022-11-09T20:57:45.652Z,11.27
2022-11-09T21:00:33.992Z,10.45
2022-11-09T21:03:21.334Z,9.02
2022-11-09T21:06:10.085Z,8.15
2022-11-09T21:09:00.871Z,9.98
2022-11-09T21:12:05.271Z,8.60
2022-11-09T21:14:52.989Z,9.00
2022-11-09T21:17:39.723Z,9.65
2022-11-09T21:20:26.486Z,8.80
2022-11-09T21:23:31.236Z,9.73
2022-11-09T21:26:36.938Z,9.65
2022-11-09T21:29:43.526Z,8.00
2022-11-09T21:32:31.653Z,9.13
2022-11-09T21:35:18.886Z,8.05
2022-11-09T21:38:05.435Z,7.90
2022-11-09T21:40:53.398Z,16.40
2022-11-09T21:43:41.625Z,10.43
2022-11-09T21:46:28.494Z,8.93
2022-11-09T21:49:15.384Z,6.82
2022-11-09T21:52:03.397Z,6.25
2022-11-09T21:54:50.380Z,5.70
2022-11-09T21:57:37.333Z,3.83
2022-11-09T22:00:25.816Z,2.80
2022-11-09T22:03:12.868Z,3.10
2022-11-09T22:05:59.614Z,2.22
2022-11-09T22:08:47.273Z,2.45
2022-11-09T22:11:51.625Z,2.65
2022-11-09T22:14:56.200Z,2.28
2022-11-09T22:17:44.383Z,1.98
2022-11-09T22:20:48.769Z,2.08
2022-11-09T22:23:35.741Z,2.15
2022-11-09T22:26:22.646Z,1.92
2022-11-09T22:29:09.698Z,2.40
2022-11-09T22:31:56.762Z,2.33
2022-11-09T22:34:45.679Z,2.38
2022-11-09T22:37:32.347Z,2.40
2022-11-09T22:40:19.481Z,2.45
2022-11-09T22:43:06.153Z,2.50
2022-11-09T22:45:53.233Z,2.33
2022-11-09T22:48:41.338Z,2.00
2022-11-09T22:51:29.655Z,2.38
2022-11-09T22:54:16.715Z,2.45
2022-11-09T22:57:03.864Z,2.50
2022-11-09T22:59:50.413Z,2.17
2022-11-09T23:02:37.648Z,1.80
2022-11-09T23:05:24.271Z,1.90
2022-11-09T23:08:12.806Z,2.28
2022-11-09T23:11:00.288Z,2.10
2022-11-09T23:13:50.218Z,1.92
2022-11-09T23:16:37.197Z,2.28
2022-11-09T23:19:23.204Z,2.10
2022-11-09T23:22:10.291Z,2.47
2022-11-09T23:25:15.904Z,2.63
2022-11-09T23:28:02.976Z,2.30
2022-11-09T23:30:49.751Z,2.65
2022-11-09T23:33:37.137Z,2.22
2022-11-09T23:36:26.057Z,2.78
2022-11-09T23:39:12.764Z,2.15
2022-11-09T23:42:00.870Z,2.00
2022-11-09T23:44:47.690Z,1.55
2022-11-09T23:47:34.447Z,1.70
2022-11-09T23:50:22.373Z,1.50
2022-11-09T23:53:10.360Z,1.95
2022-11-09T23:56:02.166Z,1.98
2022-11-09T23:58:51.898Z,1.80
